sensor_id;sensor_type;location;lat;lon;timestamp;P1;durP1;ratioP1;P2;durP2;ratioP2
69404;SDS011;57084;52.046;5.632;2022-11-15T00:00:00;22.4;;;8.2;;
69404;SDS011;57084;52.046;5.632;2022-11-15T00:01:00;22.4;;;8.2;;
69404;SDS011;57084;52.046;5.632;2022-11-15T00:02:00;24.7;;;8.7;;
69404;SDS011;57084;52.046;5.632;2022-11-15T00:03:00;24.7;;;8.7;;
69404;SDS011;57084;52.046;5.632;2022-11-15T00:04:00;24.7;;;8.7;;
69404;SDS011;57084;52.046;5.632;2022-11-15T00:05:00;24.7;;;8.7;;
69404;SDS011;57084;52.046;5.632;2022-11-15T00:06:02;24.7;;;8.7;;
69404;SDS011;57084;52.046;5.632;2022-11-15T00:07:00;25.3;;;7.9;;
69404;SDS011;57084;52.046;5.632;2022-11-15T00:08:00;25.3;;;7.9;;
69404;SDS011;57084;52.046;5.632;2022-11-15T00:09:00;25.3;;;7.9;;
69404;SDS011;57084;52.046;5.632;2022-11-15T00:10:00;25.3;;;7.9;;
69404;SDS011;57084;52.046;5.632;2022-11-15T00:11:01;25.3;;;7.9;;
69404;SDS011;57084;52.046;5.632;2022-11-15T00:12:00;26.5;;;9.2;;
69404;SDS011;57084;52.046;5.632;2022-11-15T00:13:04;26.5;;;9.2;;
69404;SDS011;57084;52.046;5.632;2022-11-15T00:14:00;26.5;;;9.2;;
69404;SDS011;57084;52.046;5.632;2022-11-15T00:15:00;26.5;;;9.2;;
69404;SDS011;57084;52.046;5.632;2022-11-15T00:16:01;26.5;;;9.2;;
69404;SDS011;57084;52.046;5.632;2022-11-15T00:17:00;27.0;;;8.7;;
69404;SDS011;57084;52.046;5.632;2022-11-15T00:18:00;27.0;;;8.7;;
69404;SDS011;57084;52.046;5.632;2022-11-15T00:19:00;27.0;;;8.7;;
69404;SDS011;57084;52.046;5.632;2022-11-15T00:20:00;27.0;;;8.7;;
69404;SDS011;57084;52.046;5.632;2022-11-15T00:21:04;27.0;;;8.7;;
69404;SDS011;57084;52.046;5.632;2022-11-15T00:22:00;25.3;;;9.0;;
69404;SDS011;57084;52.046;5.632;2022-11-15T00:23:00;25.3;;;9.0;;
69404;SDS011;57084;52.046;5.632;2022-11-15T00:24:00;25.3;;;9.0;;
69404;SDS011;57084;52.046;5.632;2022-11-15T00:25:00;25.3;;;9.0;;
69404;SDS011;57084;52.046;5.632;2022-11-15T00:26:00;25.3;;;9.0;;
69404;SDS011;57084;52.046;5.632;2022-11-15T00:27:00;23.9;;;8.3;;
69404;SDS011;57084;52.046;5.632;2022-11-15T00:28:00;23.9;;;8.3;;
69404;SDS011;57084;52.046;5.632;2022-11-15T00:29:00;23.9;;;8.3;;
69404;SDS011;57084;52.046;5.632;2022-11-15T00:30:00;23.9;;;8.3;;
69404;SDS011;57084;52.046;5.632;2022-11-15T00:31:00;23.9;;;8.3;;
69404;SDS011;57084;52.046;5.632;2022-11-15T00:32:00;21.4;;;8.0;;
69404;SDS011;57084;52.046;5.632;2022-11-15T00:33:02;21.4;;;8.0;;
69404;SDS011;57084;52.046;5.632;2022-11-15T00:34:00;21.4;;;8.0;;
69404;SDS011;57084;52.046;5.632;2022-11-15T00:35:00;21.4;;;8.0;;
69404;SDS011;57084;52.046;5.632;2022-11-15T00:36:01;21.4;;;8.0;;
69404;SDS011;57084;52.046;5.632;2022-11-15T00:37:00;27.0;;;9.2;;
69404;SDS011;57084;52.046;5.632;2022-11-15T00:38:00;27.0;;;9.2;;
69404;SDS011;57084;52.046;5.632;2022-11-15T00:39:00;27.0;;;9.2;;
69404;SDS011;57084;52.046;5.632;2022-11-15T00:40:00;27.0;;;9.2;;
69404;SDS011;57084;52.046;5.632;2022-11-15T00:41:01;27.0;;;9.2;;
69404;SDS011;57084;52.046;5.632;2022-11-15T00:42:00;21.7;;;8.9;;
69404;SDS011;57084;52.046;5.632;2022-11-15T00:43:00;21.7;;;8.9;;
69404;SDS011;57084;52.046;5.632;2022-11-15T00:44:00;21.7;;;8.9;;
69404;SDS011;57084;52.046;5.632;2022-11-15T00:45:00;21.7;;;8.9;;
69404;SDS011;57084;52.046;5.632;2022-11-15T00:46:00;21.7;;;8.9;;
69404;SDS011;57084;52.046;5.632;2022-11-15T00:47:00;27.6;;;8.5;;
69404;SDS011;57084;52.046;5.632;2022-11-15T00:48:00;27.6;;;8.5;;
69404;SDS011;57084;52.046;5.632;2022-11-15T00:49:00;27.6;;;8.5;;
69404;SDS011;57084;52.046;5.632;2022-11-15T00:50:00;27.6;;;8.5;;
69404;SDS011;57084;52.046;5.632;2022-11-15T00:51:00;27.6;;;8.5;;
69404;SDS011;57084;52.046;5.632;2022-11-15T00:52:00;22.2;;;8.5;;
69404;SDS011;57084;52.046;5.632;2022-11-15T00:53:00;22.2;;;8.5;;
69404;SDS011;57084;52.046;5.632;2022-11-15T00:54:00;22.2;;;8.5;;
69404;SDS011;57084;52.046;5.632;2022-11-15T00:55:00;22.2;;;8.5;;
69404;SDS011;57084;52.046;5.632;2022-11-15T00:56:00;22.2;;;8.5;;
69404;SDS011;57084;52.046;5.632;2022-11-15T00:57:00;27.5;;;9.1;;
69404;SDS011;57084;52.046;5.632;2022-11-15T00:58:00;27.5;;;9.1;;
69404;SDS011;57084;52.046;5.632;2022-11-15T00:59:00;27.5;;;9.1;;
69404;SDS011;57084;52.046;5.632;2022-11-15T01:00:00;27.5;;;9.1;;
69404;SDS011;57084;52.046;5.632;2022-11-15T01:01:09;27.5;;;9.1;;
69404;SDS011;57084;52.046;5.632;2022-11-15T01:02:00;23.0;;;8.6;;
69404;SDS011;57084;52.046;5.632;2022-11-15T01:03:00;23.0;;;8.6;;
69404;SDS011;57084;52.046;5.632;2022-11-15T01:04:00;23.0;;;8.6;;
69404;SDS011;57084;52.046;5.632;2022-11-15T01:05:00;23.0;;;8.6;;
69404;SDS011;57084;52.046;5.632;2022-11-15T01:06:00;23.0;;;8.6;;
69404;SDS011;57084;52.046;5.632;2022-11-15T01:07:00;21.5;;;8.2;;
69404;SDS011;57084;52.046;5.632;2022-11-15T01:08:00;21.5;;;8.2;;
69404;SDS011;57084;52.046;5.632;2022-11-15T01:09:00;21.5;;;8.2;;
69404;SDS011;57084;52.046;5.632;2022-11-15T01:10:00;21.5;;;8.2;;
69404;SDS011;57084;52.046;5.632;2022-11-15T01:11:01;21.5;;;8.2;;
69404;SDS011;57084;52.046;5.632;2022-11-15T01:12:00;26.8;;;8.8;;
69404;SDS011;57084;52.046;5.632;2022-11-15T01:13:00;26.8;;;8.8;;
69404;SDS011;57084;52.046;5.632;2022-11-15T01:14:00;26.8;;;8.8;;
69404;SDS011;57084;52.046;5.632;2022-11-15T01:15:00;26.8;;;8.8;;
69404;SDS011;57084;52.046;5.632;2022-11-15T01:16:06;26.8;;;8.8;;
69404;SDS011;57084;52.046;5.632;2022-11-15T01:17:00;22.8;;;8.3;;
69404;SDS011;57084;52.046;5.632;2022-11-15T01:18:00;22.8;;;8.3;;
69404;SDS011;57084;52.046;5.632;2022-11-15T01:19:00;22.8;;;8.3;;
69404;SDS011;57084;52.046;5.632;2022-11-15T01:20:00;22.8;;;8.3;;
69404;SDS011;57084;52.046;5.632;2022-11-15T01:21:05;22.8;;;8.3;;
69404;SDS011;57084;52.046;5.632;2022-11-15T01:22:00;24.6;;;9.2;;
69404;SDS011;57084;52.046;5.632;2022-11-15T01:23:00;24.6;;;9.2;;
69404;SDS011;57084;52.046;5.632;2022-11-15T01:24:00;24.6;;;9.2;;
69404;SDS011;57084;52.046;5.632;2022-11-15T01:25:00;24.6;;;9.2;;
69404;SDS011;57084;52.046;5.632;2022-11-15T01:26:00;24.6;;;9.2;;
69404;SDS011;57084;52.046;5.632;2022-11-15T01:27:00;24.8;;;8.5;;
69404;SDS011;57084;52.046;5.632;2022-11-15T01:28:00;24.8;;;8.5;;
69404;SDS011;57084;52.046;5.632;2022-11-15T01:29:00;24.8;;;8.5;;
69404;SDS011;57084;52.046;5.632;2022-11-15T01:30:00;24.8;;;8.5;;
69404;SDS011;57084;52.046;5.632;2022-11-15T01:31:01;24.8;;;8.5;;
69404;SDS011;57084;52.046;5.632;2022-11-15T01:32:00;19.8;;;7.9;;
69404;SDS011;57084;52.046;5.632;2022-11-15T01:33:00;19.8;;;7.9;;
69404;SDS011;57084;52.046;5.632;2022-11-15T01:34:00;19.8;;;7.9;;
69404;SDS011;57084;52.046;5.632;2022-11-15T01:35:00;19.8;;;7.9;;
69404;SDS011;57084;52.046;5.632;2022-11-15T01:36:03;19.8;;;7.9;;
69404;SDS011;57084;52.046;5.632;2022-11-15T01:37:00;21.5;;;7.9;;
69404;SDS011;57084;52.046;5.632;2022-11-15T01:38:00;21.5;;;7.9;;
69404;SDS011;57084;52.046;5.632;2022-11-15T01:39:00;21.5;;;7.9;;
69404;SDS011;57084;52.046;5.632;2022-11-15T01:40:00;21.5;;;7.9;;
69404;SDS011;57084;52.046;5.632;2022-11-15T01:41:00;21.5;;;7.9;;
69404;SDS011;57084;52.046;5.632;2022-11-15T01:42:00;25.8;;;8.7;;
69404;SDS011;57084;52.046;5.632;2022-11-15T01:43:18;25.8;;;8.7;;
69404;SDS011;57084;52.046;5.632;2022-11-15T01:45:00;25.8;;;8.7;;
69404;SDS011;57084;52.046;5.632;2022-11-15T01:46:04;25.8;;;8.7;;
69404;SDS011;57084;52.046;5.632;2022-11-15T01:47:02;21.3;;;8.2;;
69404;SDS011;57084;52.046;5.632;2022-11-15T01:48:00;21.3;;;8.2;;
69404;SDS011;57084;52.046;5.632;2022-11-15T01:49:02;21.3;;;8.2;;
69404;SDS011;57084;52.046;5.632;2022-11-15T01:50:02;21.3;;;8.2;;
69404;SDS011;57084;52.046;5.632;2022-11-15T01:51:02;21.3;;;8.2;;
69404;SDS011;57084;52.046;5.632;2022-11-15T01:52:01;20.1;;;8.2;;
69404;SDS011;57084;52.046;5.632;2022-11-15T01:53:00;20.1;;;8.2;;
69404;SDS011;57084;52.046;5.632;2022-11-15T01:54:03;20.1;;;8.2;;
69404;SDS011;57084;52.046;5.632;2022-11-15T01:55:03;20.1;;;8.2;;
69404;SDS011;57084;52.046;5.632;2022-11-15T01:56:01;20.1;;;8.2;;
69404;SDS011;57084;52.046;5.632;2022-11-15T01:57:03;18.8;;;7.6;;
69404;SDS011;57084;52.046;5.632;2022-11-15T01:58:03;18.8;;;7.6;;
69404;SDS011;57084;52.046;5.632;2022-11-15T01:59:03;18.8;;;7.6;;
69404;SDS011;57084;52.046;5.632;2022-11-15T02:00:01;18.8;;;7.6;;
69404;SDS011;57084;52.046;5.632;2022-11-15T02:01:00;18.8;;;7.6;;
69404;SDS011;57084;52.046;5.632;2022-11-15T02:02:00;18.8;;;7.6;;
69404;SDS011;57084;52.046;5.632;2022-11-15T02:03:01;22.1;;;8.6;;
69404;SDS011;57084;52.046;5.632;2022-11-15T02:04:03;22.1;;;8.6;;
69404;SDS011;57084;52.046;5.632;2022-11-15T02:05:00;22.1;;;8.6;;
69404;SDS011;57084;52.046;5.632;2022-11-15T02:06:01;22.1;;;8.6;;
69404;SDS011;57084;52.046;5.632;2022-11-15T02:07:01;22.1;;;8.6;;
69404;SDS011;57084;52.046;5.632;2022-11-15T02:08:00;24.6;;;8.4;;
69404;SDS011;57084;52.046;5.632;2022-11-15T02:09:00;24.6;;;8.4;;
69404;SDS011;57084;52.046;5.632;2022-11-15T02:10:04;24.6;;;8.4;;
69404;SDS011;57084;52.046;5.632;2022-11-15T02:11:00;24.6;;;8.4;;
69404;SDS011;57084;52.046;5.632;2022-11-15T02:12:00;24.6;;;8.4;;
69404;SDS011;57084;52.046;5.632;2022-11-15T02:13:00;19.8;;;8.1;;
69404;SDS011;57084;52.046;5.632;2022-11-15T02:14:01;19.8;;;8.1;;
69404;SDS011;57084;52.046;5.632;2022-11-15T02:15:00;19.8;;;8.1;;
69404;SDS011;57084;52.046;5.632;2022-11-15T02:16:07;19.8;;;8.1;;
69404;SDS011;57084;52.046;5.632;2022-11-15T02:17:07;19.8;;;8.1;;
69404;SDS011;57084;52.046;5.632;2022-11-15T02:18:08;23.6;;;8.1;;
69404;SDS011;57084;52.046;5.632;2022-11-15T02:19:05;23.6;;;8.1;;
69404;SDS011;57084;52.046;5.632;2022-11-15T02:20:15;23.6;;;8.1;;
69404;SDS011;57084;52.046;5.632;2022-11-15T02:21:11;23.6;;;8.1;;
69404;SDS011;57084;52.046;5.632;2022-11-15T02:22:10;23.6;;;8.1;;
69404;SDS011;57084;52.046;5.632;2022-11-15T02:23:14;21.0;;;7.8;;
69404;SDS011;57084;52.046;5.632;2022-11-15T02:24:16;21.0;;;7.8;;
69404;SDS011;57084;52.046;5.632;2022-11-15T02:25:03;21.0;;;7.8;;
69404;SDS011;57084;52.046;5.632;2022-11-15T02:26:16;21.0;;;7.8;;
69404;SDS011;57084;52.046;5.632;2022-11-15T02:27:16;21.0;;;7.8;;
69404;SDS011;57084;52.046;5.632;2022-11-15T02:29:03;20.1;;;7.7;;
69404;SDS011;57084;52.046;5.632;2022-11-15T02:31:03;20.1;;;7.7;;
69404;SDS011;57084;52.046;5.632;2022-11-15T02:32:05;20.1;;;7.7;;
69404;SDS011;57084;52.046;5.632;2022-11-15T02:33:03;21.1;;;8.0;;
69404;SDS011;57084;52.046;5.632;2022-11-15T02:34:05;21.1;;;8.0;;
69404;SDS011;57084;52.046;5.632;2022-11-15T02:35:09;21.1;;;8.0;;
69404;SDS011;57084;52.046;5.632;2022-11-15T02:36:01;21.1;;;8.0;;
69404;SDS011;57084;52.046;5.632;2022-11-15T02:37:03;21.1;;;8.0;;
69404;SDS011;57084;52.046;5.632;2022-11-15T02:38:05;19.0;;;7.6;;
69404;SDS011;57084;52.046;5.632;2022-11-15T02:39:04;19.0;;;7.6;;
69404;SDS011;57084;52.046;5.632;2022-11-15T02:40:07;19.0;;;7.6;;
69404;SDS011;57084;52.046;5.632;2022-11-15T02:41:02;19.0;;;7.6;;
69404;SDS011;57084;52.046;5.632;2022-11-15T02:42:02;19.0;;;7.6;;
69404;SDS011;57084;52.046;5.632;2022-11-15T02:43:05;17.1;;;7.6;;
69404;SDS011;57084;52.046;5.632;2022-11-15T02:44:03;17.1;;;7.6;;
69404;SDS011;57084;52.046;5.632;2022-11-15T02:45:03;17.1;;;7.6;;
69404;SDS011;57084;52.046;5.632;2022-11-15T02:46:04;17.1;;;7.6;;
69404;SDS011;57084;52.046;5.632;2022-11-15T02:47:02;17.1;;;7.6;;
69404;SDS011;57084;52.046;5.632;2022-11-15T02:48:01;17.3;;;7.7;;
69404;SDS011;57084;52.046;5.632;2022-11-15T02:49:00;17.3;;;7.7;;
69404;SDS011;57084;52.046;5.632;2022-11-15T02:50:02;17.3;;;7.7;;
69404;SDS011;57084;52.046;5.632;2022-11-15T02:51:00;17.3;;;7.7;;
69404;SDS011;57084;52.046;5.632;2022-11-15T02:52:00;17.3;;;7.7;;
69404;SDS011;57084;52.046;5.632;2022-11-15T02:53:00;19.4;;;8.0;;
69404;SDS011;57084;52.046;5.632;2022-11-15T02:54:00;19.4;;;8.0;;
69404;SDS011;57084;52.046;5.632;2022-11-15T02:55:01;19.4;;;8.0;;
69404;SDS011;57084;52.046;5.632;2022-11-15T02:56:00;19.4;;;8.0;;
69404;SDS011;57084;52.046;5.632;2022-11-15T02:57:02;19.4;;;8.0;;
69404;SDS011;57084;52.046;5.632;2022-11-15T02:58:17;15.8;;;8.0;;
69404;SDS011;57084;52.046;5.632;2022-11-15T02:59:10;15.8;;;8.0;;
69404;SDS011;57084;52.046;5.632;2022-11-15T03:00:03;15.8;;;8.0;;
69404;SDS011;57084;52.046;5.632;2022-11-15T03:01:04;15.8;;;8.0;;
69404;SDS011;57084;52.046;5.632;2022-11-15T03:02:13;15.8;;;8.0;;
69404;SDS011;57084;52.046;5.632;2022-11-15T03:03:13;18.7;;;7.7;;
69404;SDS011;57084;52.046;5.632;2022-11-15T03:04:07;18.7;;;7.7;;
69404;SDS011;57084;52.046;5.632;2022-11-15T03:05:04;18.7;;;7.7;;
69404;SDS011;57084;52.046;5.632;2022-11-15T03:06:07;18.7;;;7.7;;
69404;SDS011;57084;52.046;5.632;2022-11-15T03:07:05;18.7;;;7.7;;
69404;SDS011;57084;52.046;5.632;2022-11-15T03:08:04;21.1;;;8.1;;
69404;SDS011;57084;52.046;5.632;2022-11-15T03:09:04;21.1;;;8.1;;
69404;SDS011;57084;52.046;5.632;2022-11-15T03:10:05;21.1;;;8.1;;
69404;SDS011;57084;52.046;5.632;2022-11-15T03:11:03;21.1;;;8.1;;
69404;SDS011;57084;52.046;5.632;2022-11-15T03:12:03;21.1;;;8.1;;
69404;SDS011;57084;52.046;5.632;2022-11-15T03:13:07;23.7;;;7.9;;
69404;SDS011;57084;52.046;5.632;2022-11-15T03:14:06;23.7;;;7.9;;
69404;SDS011;57084;52.046;5.632;2022-11-15T03:15:01;23.7;;;7.9;;
69404;SDS011;57084;52.046;5.632;2022-11-15T03:16:03;23.7;;;7.9;;
69404;SDS011;57084;52.046;5.632;2022-11-15T03:17:06;23.7;;;7.9;;
69404;SDS011;57084;52.046;5.632;2022-11-15T03:18:02;18.4;;;7.6;;
69404;SDS011;57084;52.046;5.632;2022-11-15T03:19:04;18.4;;;7.6;;
69404;SDS011;57084;52.046;5.632;2022-11-15T03:20:01;18.4;;;7.6;;
69404;SDS011;57084;52.046;5.632;2022-11-15T03:21:04;18.4;;;7.6;;
69404;SDS011;57084;52.046;5.632;2022-11-15T03:22:03;18.4;;;7.6;;
69404;SDS011;57084;52.046;5.632;2022-11-15T03:23:03;19.5;;;7.7;;
69404;SDS011;57084;52.046;5.632;2022-11-15T03:24:03;19.5;;;7.7;;
69404;SDS011;57084;52.046;5.632;2022-11-15T03:25:04;19.5;;;7.7;;
69404;SDS011;57084;52.046;5.632;2022-11-15T03:26:00;19.5;;;7.7;;
69404;SDS011;57084;52.046;5.632;2022-11-15T03:27:00;19.5;;;7.7;;
69404;SDS011;57084;52.046;5.632;2022-11-15T03:28:03;15.4;;;7.6;;
69404;SDS011;57084;52.046;5.632;2022-11-15T03:29:03;15.4;;;7.6;;
69404;SDS011;57084;52.046;5.632;2022-11-15T03:30:02;15.4;;;7.6;;
69404;SDS011;57084;52.046;5.632;2022-11-15T03:31:01;15.4;;;7.6;;
69404;SDS011;57084;52.046;5.632;2022-11-15T03:32:03;15.4;;;7.6;;
69404;SDS011;57084;52.046;5.632;2022-11-15T03:33:02;17.8;;;7.4;;
69404;SDS011;57084;52.046;5.632;2022-11-15T03:34:02;17.8;;;7.4;;
69404;SDS011;57084;52.046;5.632;2022-11-15T03:35:02;17.8;;;7.4;;
69404;SDS011;57084;52.046;5.632;2022-11-15T03:36:00;17.8;;;7.4;;
69404;SDS011;57084;52.046;5.632;2022-11-15T03:37:00;17.8;;;7.4;;
69404;SDS011;57084;52.046;5.632;2022-11-15T03:38:06;18.5;;;7.4;;
69404;SDS011;57084;52.046;5.632;2022-11-15T03:39:02;18.5;;;7.4;;
69404;SDS011;57084;52.046;5.632;2022-11-15T03:40:00;18.5;;;7.4;;
69404;SDS011;57084;52.046;5.632;2022-11-15T03:41:03;18.5;;;7.4;;
69404;SDS011;57084;52.046;5.632;2022-11-15T03:42:08;18.5;;;7.4;;
69404;SDS011;57084;52.046;5.632;2022-11-15T03:43:02;16.8;;;7.0;;
69404;SDS011;57084;52.046;5.632;2022-11-15T03:44:05;16.8;;;7.0;;
69404;SDS011;57084;52.046;5.632;2022-11-15T03:45:04;16.8;;;7.0;;
69404;SDS011;57084;52.046;5.632;2022-11-15T03:46:02;16.8;;;7.0;;
69404;SDS011;57084;52.046;5.632;2022-11-15T03:47:03;16.8;;;7.0;;
69404;SDS011;57084;52.046;5.632;2022-11-15T03:48:04;16.3;;;7.1;;
69404;SDS011;57084;52.046;5.632;2022-11-15T03:49:06;16.3;;;7.1;;
69404;SDS011;57084;52.046;5.632;2022-11-15T03:50:03;16.3;;;7.1;;
69404;SDS011;57084;52.046;5.632;2022-11-15T03:51:00;16.3;;;7.1;;
69404;SDS011;57084;52.046;5.632;2022-11-15T03:52:01;16.3;;;7.1;;
69404;SDS011;57084;52.046;5.632;2022-11-15T03:53:00;21.2;;;7.9;;
69404;SDS011;57084;52.046;5.632;2022-11-15T03:54:02;21.2;;;7.9;;
69404;SDS011;57084;52.046;5.632;2022-11-15T03:55:02;21.2;;;7.9;;
69404;SDS011;57084;52.046;5.632;2022-11-15T03:56:00;21.2;;;7.9;;
69404;SDS011;57084;52.046;5.632;2022-11-15T03:57:00;21.2;;;7.9;;
69404;SDS011;57084;52.046;5.632;2022-11-15T03:58:00;20.0;;;7.6;;
69404;SDS011;57084;52.046;5.632;2022-11-15T03:59:00;20.0;;;7.6;;
69404;SDS011;57084;52.046;5.632;2022-11-15T04:00:00;20.0;;;7.6;;
69404;SDS011;57084;52.046;5.632;2022-11-15T04:01:00;20.0;;;7.6;;
69404;SDS011;57084;52.046;5.632;2022-11-15T04:02:00;20.0;;;7.6;;
69404;SDS011;57084;52.046;5.632;2022-11-15T04:03:00;20.0;;;7.6;;
69404;SDS011;57084;52.046;5.632;2022-11-15T04:04:00;16.3;;;8.0;;
69404;SDS011;57084;52.046;5.632;2022-11-15T04:05:00;16.3;;;8.0;;
69404;SDS011;57084;52.046;5.632;2022-11-15T04:06:00;16.3;;;8.0;;
69404;SDS011;57084;52.046;5.632;2022-11-15T04:07:00;16.3;;;8.0;;
69404;SDS011;57084;52.046;5.632;2022-11-15T04:08:00;16.3;;;8.0;;
69404;SDS011;57084;52.046;5.632;2022-11-15T04:09:00;18.1;;;7.5;;
69404;SDS011;57084;52.046;5.632;2022-11-15T04:10:00;18.1;;;7.5;;
69404;SDS011;57084;52.046;5.632;2022-11-15T04:11:00;18.1;;;7.5;;
69404;SDS011;57084;52.046;5.632;2022-11-15T04:12:00;18.1;;;7.5;;
69404;SDS011;57084;52.046;5.632;2022-11-15T04:13:02;18.1;;;7.5;;
69404;SDS011;57084;52.046;5.632;2022-11-15T04:14:00;16.5;;;8.0;;
69404;SDS011;57084;52.046;5.632;2022-11-15T04:15:02;16.5;;;8.0;;
69404;SDS011;57084;52.046;5.632;2022-11-15T04:16:00;16.5;;;8.0;;
69404;SDS011;57084;52.046;5.632;2022-11-15T04:17:00;16.5;;;8.0;;
69404;SDS011;57084;52.046;5.632;2022-11-15T04:18:00;16.5;;;8.0;;
69404;SDS011;57084;52.046;5.632;2022-11-15T04:19:00;17.4;;;7.4;;
69404;SDS011;57084;52.046;5.632;2022-11-15T04:20:00;17.4;;;7.4;;
69404;SDS011;57084;52.046;5.632;2022-11-15T04:21:00;17.4;;;7.4;;
69404;SDS011;57084;52.046;5.632;2022-11-15T04:22:00;17.4;;;7.4;;
69404;SDS011;57084;52.046;5.632;2022-11-15T04:23:01;17.4;;;7.4;;
69404;SDS011;57084;52.046;5.632;2022-11-15T04:24:00;17.7;;;8.2;;
69404;SDS011;57084;52.046;5.632;2022-11-15T04:25:00;17.7;;;8.2;;
69404;SDS011;57084;52.046;5.632;2022-11-15T04:26:02;17.7;;;8.2;;
69404;SDS011;57084;52.046;5.632;2022-11-15T04:27:00;17.7;;;8.2;;
69404;SDS011;57084;52.046;5.632;2022-11-15T04:28:00;17.7;;;8.2;;
69404;SDS011;57084;52.046;5.632;2022-11-15T04:29:00;19.5;;;8.0;;
69404;SDS011;57084;52.046;5.632;2022-11-15T04:30:00;19.5;;;8.0;;
69404;SDS011;57084;52.046;5.632;2022-11-15T04:31:00;19.5;;;8.0;;
69404;SDS011;57084;52.046;5.632;2022-11-15T04:32:00;19.5;;;8.0;;
69404;SDS011;57084;52.046;5.632;2022-11-15T04:33:00;19.5;;;8.0;;
69404;SDS011;57084;52.046;5.632;2022-11-15T04:34:00;20.3;;;7.6;;
69404;SDS011;57084;52.046;5.632;2022-11-15T04:35:00;20.3;;;7.6;;
69404;SDS011;57084;52.046;5.632;2022-11-15T04:36:00;20.3;;;7.6;;
69404;SDS011;57084;52.046;5.632;2022-11-15T04:37:00;20.3;;;7.6;;
69404;SDS011;57084;52.046;5.632;2022-11-15T04:38:01;20.3;;;7.6;;
69404;SDS011;57084;52.046;5.632;2022-11-15T04:39:00;17.2;;;7.9;;
69404;SDS011;57084;52.046;5.632;2022-11-15T04:40:00;17.2;;;7.9;;
69404;SDS011;57084;52.046;5.632;2022-11-15T04:41:00;17.2;;;7.9;;
69404;SDS011;57084;52.046;5.632;2022-11-15T04:42:00;17.2;;;7.9;;
69404;SDS011;57084;52.046;5.632;2022-11-15T04:43:00;17.2;;;7.9;;
69404;SDS011;57084;52.046;5.632;2022-11-15T04:44:00;16.8;;;7.5;;
69404;SDS011;57084;52.046;5.632;2022-11-15T04:45:00;16.8;;;7.5;;
69404;SDS011;57084;52.046;5.632;2022-11-15T04:46:00;16.8;;;7.5;;
69404;SDS011;57084;52.046;5.632;2022-11-15T04:47:00;16.8;;;7.5;;
69404;SDS011;57084;52.046;5.632;2022-11-15T04:48:00;16.8;;;7.5;;
69404;SDS011;57084;52.046;5.632;2022-11-15T04:49:00;17.4;;;7.6;;
69404;SDS011;57084;52.046;5.632;2022-11-15T04:50:00;17.4;;;7.6;;
69404;SDS011;57084;52.046;5.632;2022-11-15T04:51:00;17.4;;;7.6;;
69404;SDS011;57084;52.046;5.632;2022-11-15T04:52:00;17.4;;;7.6;;
69404;SDS011;57084;52.046;5.632;2022-11-15T04:53:00;17.4;;;7.6;;
69404;SDS011;57084;52.046;5.632;2022-11-15T04:54:00;16.2;;;7.9;;
69404;SDS011;57084;52.046;5.632;2022-11-15T04:55:00;16.2;;;7.9;;
69404;SDS011;57084;52.046;5.632;2022-11-15T04:56:00;16.2;;;7.9;;
69404;SDS011;57084;52.046;5.632;2022-11-15T04:57:00;16.2;;;7.9;;
69404;SDS011;57084;52.046;5.632;2022-11-15T04:58:01;16.2;;;7.9;;
69404;SDS011;57084;52.046;5.632;2022-11-15T04:59:00;17.0;;;7.3;;
69404;SDS011;57084;52.046;5.632;2022-11-15T05:00:00;17.0;;;7.3;;
69404;SDS011;57084;52.046;5.632;2022-11-15T05:01:06;17.0;;;7.3;;
69404;SDS011;57084;52.046;5.632;2022-11-15T05:02:00;17.0;;;7.3;;
69404;SDS011;57084;52.046;5.632;2022-11-15T05:03:00;17.0;;;7.3;;
69404;SDS011;57084;52.046;5.632;2022-11-15T05:04:00;17.1;;;7.8;;
69404;SDS011;57084;52.046;5.632;2022-11-15T05:05:00;17.1;;;7.8;;
69404;SDS011;57084;52.046;5.632;2022-11-15T05:06:00;17.1;;;7.8;;
69404;SDS011;57084;52.046;5.632;2022-11-15T05:07:00;17.1;;;7.8;;
69404;SDS011;57084;52.046;5.632;2022-11-15T05:08:00;17.1;;;7.8;;
69404;SDS011;57084;52.046;5.632;2022-11-15T05:09:00;15.3;;;7.7;;
69404;SDS011;57084;52.046;5.632;2022-11-15T05:10:00;15.3;;;7.7;;
69404;SDS011;57084;52.046;5.632;2022-11-15T05:11:00;15.3;;;7.7;;
69404;SDS011;57084;52.046;5.632;2022-11-15T05:12:00;15.3;;;7.7;;
69404;SDS011;57084;52.046;5.632;2022-11-15T05:13:00;15.3;;;7.7;;
69404;SDS011;57084;52.046;5.632;2022-11-15T05:14:00;17.1;;;7.4;;
69404;SDS011;57084;52.046;5.632;2022-11-15T05:15:00;17.1;;;7.4;;
69404;SDS011;57084;52.046;5.632;2022-11-15T05:16:00;17.1;;;7.4;;
69404;SDS011;57084;52.046;5.632;2022-11-15T05:17:00;17.1;;;7.4;;
69404;SDS011;57084;52.046;5.632;2022-11-15T05:18:00;17.1;;;7.4;;
69404;SDS011;57084;52.046;5.632;2022-11-15T05:19:00;16.8;;;7.4;;
69404;SDS011;57084;52.046;5.632;2022-11-15T05:20:00;16.8;;;7.4;;
69404;SDS011;57084;52.046;5.632;2022-11-15T05:21:02;16.8;;;7.4;;
69404;SDS011;57084;52.046;5.632;2022-11-15T05:22:00;16.8;;;7.4;;
69404;SDS011;57084;52.046;5.632;2022-11-15T05:23:00;16.8;;;7.4;;
69404;SDS011;57084;52.046;5.632;2022-11-15T05:24:00;17.6;;;8.0;;
69404;SDS011;57084;52.046;5.632;2022-11-15T05:25:00;17.6;;;8.0;;
69404;SDS011;57084;52.046;5.632;2022-11-15T05:26:00;17.6;;;8.0;;
69404;SDS011;57084;52.046;5.632;2022-11-15T05:27:00;17.6;;;8.0;;
69404;SDS011;57084;52.046;5.632;2022-11-15T05:28:00;17.6;;;8.0;;
69404;SDS011;57084;52.046;5.632;2022-11-15T05:29:00;19.2;;;7.2;;
69404;SDS011;57084;52.046;5.632;2022-11-15T05:30:00;19.2;;;7.2;;
69404;SDS011;57084;52.046;5.632;2022-11-15T05:31:01;19.2;;;7.2;;
69404;SDS011;57084;52.046;5.632;2022-11-15T05:32:00;19.2;;;7.2;;
69404;SDS011;57084;52.046;5.632;2022-11-15T05:33:00;19.2;;;7.2;;
69404;SDS011;57084;52.046;5.632;2022-11-15T05:34:00;16.5;;;8.0;;
69404;SDS011;57084;52.046;5.632;2022-11-15T05:35:00;16.5;;;8.0;;
69404;SDS011;57084;52.046;5.632;2022-11-15T05:36:03;16.5;;;8.0;;
69404;SDS011;57084;52.046;5.632;2022-11-15T05:37:00;16.5;;;8.0;;
69404;SDS011;57084;52.046;5.632;2022-11-15T05:38:00;16.5;;;8.0;;
69404;SDS011;57084;52.046;5.632;2022-11-15T05:39:00;15.6;;;7.7;;
69404;SDS011;57084;52.046;5.632;2022-11-15T05:40:00;15.6;;;7.7;;
69404;SDS011;57084;52.046;5.632;2022-11-15T05:41:00;15.6;;;7.7;;
69404;SDS011;57084;52.046;5.632;2022-11-15T05:42:02;15.6;;;7.7;;
69404;SDS011;57084;52.046;5.632;2022-11-15T05:43:01;15.6;;;7.7;;
69404;SDS011;57084;52.046;5.632;2022-11-15T05:44:01;17.1;;;8.0;;
69404;SDS011;57084;52.046;5.632;2022-11-15T05:45:03;17.1;;;8.0;;
69404;SDS011;57084;52.046;5.632;2022-11-15T05:46:02;17.1;;;8.0;;
69404;SDS011;57084;52.046;5.632;2022-11-15T05:47:00;17.1;;;8.0;;
69404;SDS011;57084;52.046;5.632;2022-11-15T05:48:01;17.1;;;8.0;;
69404;SDS011;57084;52.046;5.632;2022-11-15T05:49:00;18.2;;;8.2;;
69404;SDS011;57084;52.046;5.632;2022-11-15T05:50:00;18.2;;;8.2;;
69404;SDS011;57084;52.046;5.632;2022-11-15T05:51:01;18.2;;;8.2;;
69404;SDS011;57084;52.046;5.632;2022-11-15T05:52:00;18.2;;;8.2;;
69404;SDS011;57084;52.046;5.632;2022-11-15T05:53:01;18.2;;;8.2;;
69404;SDS011;57084;52.046;5.632;2022-11-15T05:54:00;19.8;;;7.6;;
69404;SDS011;57084;52.046;5.632;2022-11-15T05:55:01;19.8;;;7.6;;
69404;SDS011;57084;52.046;5.632;2022-11-15T05:56:00;19.8;;;7.6;;
69404;SDS011;57084;52.046;5.632;2022-11-15T05:57:00;19.8;;;7.6;;
69404;SDS011;57084;52.046;5.632;2022-11-15T05:58:00;19.8;;;7.6;;
69404;SDS011;57084;52.046;5.632;2022-11-15T05:59:00;18.8;;;8.3;;
69404;SDS011;57084;52.046;5.632;2022-11-15T06:00:00;18.8;;;8.3;;
69404;SDS011;57084;52.046;5.632;2022-11-15T06:01:00;18.8;;;8.3;;
69404;SDS011;57084;52.046;5.632;2022-11-15T06:02:00;18.8;;;8.3;;
69404;SDS011;57084;52.046;5.632;2022-11-15T06:03:00;18.8;;;8.3;;
69404;SDS011;57084;52.046;5.632;2022-11-15T06:04:00;18.8;;;8.3;;
69404;SDS011;57084;52.046;5.632;2022-11-15T06:05:00;21.3;;;8.9;;
69404;SDS011;57084;52.046;5.632;2022-11-15T06:06:00;21.3;;;8.9;;
69404;SDS011;57084;52.046;5.632;2022-11-15T06:07:00;21.3;;;8.9;;
69404;SDS011;57084;52.046;5.632;2022-11-15T06:08:00;21.3;;;8.9;;
69404;SDS011;57084;52.046;5.632;2022-11-15T06:09:00;21.3;;;8.9;;